sensor_id;sensor_type;location;lat;lon;timestamp;temperature;humidity
14016;DHT22;7083;48.854;9.158;2023-04-24T00:01:01;9.40;99.90
14016;DHT22;7083;48.854;9.158;2023-04-24T00:03:28;9.50;99.90
14016;DHT22;7083;48.854;9.158;2023-04-24T00:05:58;9.60;99.90
14016;DHT22;7083;48.854;9.158;2023-04-24T00:08:27;9.50;99.90
14016;DHT22;7083;48.854;9.158;2023-04-24T00:10:54;9.60;99.90
14016;DHT22;7083;48.854;9.158;2023-04-24T00:13:22;10.20;99.90
14016;DHT22;7083;48.854;9.158;2023-04-24T00:15:49;9.60;99.90
14016;DHT22;7083;48.854;9.158;2023-04-24T00:18:16;9.70;99.90
14016;DHT22;7083;48.854;9.158;2023-04-24T00:20:43;9.70;99.90
14016;DHT22;7083;48.854;9.158;2023-04-24T00:23:10;9.70;99.90
14016;DHT22;7083;48.854;9.158;2023-04-24T00:25:38;9.70;99.90
14016;DHT22;7083;48.854;9.158;2023-04-24T00:28:05;9.80;99.90
14016;DHT22;7083;48.854;9.158;2023-04-24T00:30:32;9.80;99.90
14016;DHT22;7083;48.854;9.158;2023-04-24T00:32:59;9.80;99.90
14016;DHT22;7083;48.854;9.158;2023-04-24T00:35:25;9.90;99.90
14016;DHT22;7083;48.854;9.158;2023-04-24T00:37:52;9.90;99.90
14016;DHT22;7083;48.854;9.158;2023-04-24T00:40:19;9.90;99.90
14016;DHT22;7083;48.854;9.158;2023-04-24T00:42:47;9.90;99.90
14016;DHT22;7083;48.854;9.158;2023-04-24T00:45:14;10.00;99.90
14016;DHT22;7083;48.854;9.158;2023-04-24T00:47:41;10.00;99.90
14016;DHT22;7083;48.854;9.158;2023-04-24T00:50:09;9.90;99.90
14016;DHT22;7083;48.854;9.158;2023-04-24T00:52:40;10.00;99.90
14016;DHT22;7083;48.854;9.158;2023-04-24T00:55:07;10.00;99.90
14016;DHT22;7083;48.854;9.158;2023-04-24T00:57:34;10.00;99.90
14016;DHT22;7083;48.854;9.158;2023-04-24T01:00:03;10.00;99.90
14016;DHT22;7083;48.854;9.158;2023-04-24T01:02:36;10.00;99.90
14016;DHT22;7083;48.854;9.158;2023-04-24T01:05:06;10.00;99.90
14016;DHT22;7083;48.854;9.158;2023-04-24T01:07:33;10.10;99.90
14016;DHT22;7083;48.854;9.158;2023-04-24T01:09:59;10.60;99.90
14016;DHT22;7083;48.854;9.158;2023-04-24T01:12:26;10.10;99.90
14016;DHT22;7083;48.854;9.158;2023-04-24T01:14:54;10.10;99.90
14016;DHT22;7083;48.854;9.158;2023-04-24T01:17:23;10.10;99.90
14016;DHT22;7083;48.854;9.158;2023-04-24T01:19:50;10.10;99.90
14016;DHT22;7083;48.854;9.158;2023-04-24T01:22:20;10.10;99.90
14016;DHT22;7083;48.854;9.158;2023-04-24T01:24:47;10.00;99.90
14016;DHT22;7083;48.854;9.158;2023-04-24T01:27:14;10.00;99.90
14016;DHT22;7083;48.854;9.158;2023-04-24T01:29:41;10.00;99.90
14016;DHT22;7083;48.854;9.158;2023-04-24T01:32:14;9.90;99.90
14016;DHT22;7083;48.854;9.158;2023-04-24T01:34:41;11.10;99.90
14016;DHT22;7083;48.854;9.158;2023-04-24T01:37:08;9.80;99.90
14016;DHT22;7083;48.854;9.158;2023-04-24T01:39:36;9.80;99.90
14016;DHT22;7083;48.854;9.158;2023-04-24T01:42:04;9.80;99.90
14016;DHT22;7083;48.854;9.158;2023-04-24T01:44:31;9.80;99.90
14016;DHT22;7083;48.854;9.158;2023-04-24T01:47:00;9.70;99.90
14016;DHT22;7083;48.854;9.158;2023-04-24T01:49:27;10.60;99.90
14016;DHT22;7083;48.854;9.158;2023-04-24T01:51:54;9.70;99.90
14016;DHT22;7083;48.854;9.158;2023-04-24T01:54:21;9.70;99.90
14016;DHT22;7083;48.854;9.158;2023-04-24T01:56:49;9.60;99.90
14016;DHT22;7083;48.854;9.158;2023-04-24T01:59:17;9.60;99.90
14016;DHT22;7083;48.854;9.158;2023-04-24T02:01:44;9.60;99.90
14016;DHT22;7083;48.854;9.158;2023-04-24T02:04:10;9.50;99.90
14016;DHT22;7083;48.854;9.158;2023-04-24T02:06:37;9.50;99.90
14016;DHT22;7083;48.854;9.158;2023-04-24T02:09:04;9.50;99.90
14016;DHT22;7083;48.854;9.158;2023-04-24T02:11:30;9.50;99.90
14016;DHT22;7083;48.854;9.158;2023-04-24T02:13:58;9.40;99.90
14016;DHT22;7083;48.854;9.158;2023-04-24T02:16:25;9.50;99.90
14016;DHT22;7083;48.854;9.158;2023-04-24T02:18:55;9.50;99.90
14016;DHT22;7083;48.854;9.158;2023-04-24T02:21:22;9.50;99.90
14016;DHT22;7083;48.854;9.158;2023-04-24T02:23:49;9.50;99.90
14016;DHT22;7083;48.854;9.158;2023-04-24T02:26:15;9.50;99.90
14016;DHT22;7083;48.854;9.158;2023-04-24T02:28:43;9.60;99.90
14016;DHT22;7083;48.854;9.158;2023-04-24T02:31:11;9.60;99.90
14016;DHT22;7083;48.854;9.158;2023-04-24T02:33:37;9.70;99.90
14016;DHT22;7083;48.854;9.158;2023-04-24T02:36:04;9.70;99.90
14016;DHT22;7083;48.854;9.158;2023-04-24T02:38:31;9.80;99.90
14016;DHT22;7083;48.854;9.158;2023-04-24T02:40:58;9.90;99.90
14016;DHT22;7083;48.854;9.158;2023-04-24T02:43:26;9.90;99.90
14016;DHT22;7083;48.854;9.158;2023-04-24T02:45:52;10.00;99.90
14016;DHT22;7083;48.854;9.158;2023-04-24T02:48:20;10.00;99.90
14016;DHT22;7083;48.854;9.158;2023-04-24T02:50:47;10.00;99.90
14016;DHT22;7083;48.854;9.158;2023-04-24T02:53:14;10.00;99.90
14016;DHT22;7083;48.854;9.158;2023-04-24T02:55:40;10.00;99.90
14016;DHT22;7083;48.854;9.158;2023-04-24T02:58:07;10.10;99.90
14016;DHT22;7083;48.854;9.158;2023-04-24T03:00:34;10.10;99.90
14016;DHT22;7083;48.854;9.158;2023-04-24T03:03:01;10.10;99.90
14016;DHT22;7083;48.854;9.158;2023-04-24T03:05:29;10.10;99.90
14016;DHT22;7083;48.854;9.158;2023-04-24T03:07:56;10.00;99.90
14016;DHT22;7083;48.854;9.158;2023-04-24T03:10:23;10.00;99.90
14016;DHT22;7083;48.854;9.158;2023-04-24T03:12:50;9.90;99.90
14016;DHT22;7083;48.854;9.158;2023-04-24T03:15:16;9.90;99.90
14016;DHT22;7083;48.854;9.158;2023-04-24T03:17:43;9.80;99.90
14016;DHT22;7083;48.854;9.158;2023-04-24T03:20:10;9.80;99.90
14016;DHT22;7083;48.854;9.158;2023-04-24T03:22:38;9.70;99.90
14016;DHT22;7083;48.854;9.158;2023-04-24T03:25:06;9.70;99.90
14016;DHT22;7083;48.854;9.158;2023-04-24T03:27:34;9.60;99.90
14016;DHT22;7083;48.854;9.158;2023-04-24T03:30:01;9.60;99.90
14016;DHT22;7083;48.854;9.158;2023-04-24T03:32:28;9.50;99.90
14016;DHT22;7083;48.854;9.158;2023-04-24T03:34:55;9.40;99.90
14016;DHT22;7083;48.854;9.158;2023-04-24T03:37:22;9.40;99.90
14016;DHT22;7083;48.854;9.158;2023-04-24T03:39:50;9.40;99.90
14016;DHT22;7083;48.854;9.158;2023-04-24T03:42:17;9.30;99.90
14016;DHT22;7083;48.854;9.158;2023-04-24T03:44:43;9.30;99.90
14016;DHT22;7083;48.854;9.158;2023-04-24T03:47:10;9.20;99.90
14016;DHT22;7083;48.854;9.158;2023-04-24T03:49:37;9.20;99.90
14016;DHT22;7083;48.854;9.158;2023-04-24T03:52:03;9.20;99.90
14016;DHT22;7083;48.854;9.158;2023-04-24T03:54:30;9.20;99.90
14016;DHT22;7083;48.854;9.158;2023-04-24T03:56:58;9.20;99.90
14016;DHT22;7083;48.854;9.158;2023-04-24T03:59:25;9.10;99.90
14016;DHT22;7083;48.854;9.158;2023-04-24T04:01:52;9.10;99.90
14016;DHT22;7083;48.854;9.158;2023-04-24T04:04:18;9.10;99.90
14016;DHT22;7083;48.854;9.158;2023-04-24T04:06:45;9.10;99.90
14016;DHT22;7083;48.854;9.158;2023-04-24T04:09:12;9.10;99.90
14016;DHT22;7083;48.854;9.158;2023-04-24T04:11:39;9.20;99.90
14016;DHT22;7083;48.854;9.158;2023-04-24T04:14:07;9.30;99.90
14016;DHT22;7083;48.854;9.158;2023-04-24T04:16:34;9.30;99.90
14016;DHT22;7083;48.854;9.158;2023-04-24T04:19:01;9.40;99.90
14016;DHT22;7083;48.854;9.158;2023-04-24T04:21:28;9.50;99.90
14016;DHT22;7083;48.854;9.158;2023-04-24T04:23:56;9.50;99.90
14016;DHT22;7083;48.854;9.158;2023-04-24T04:26:23;9.60;99.90
14016;DHT22;7083;48.854;9.158;2023-04-24T04:28:51;9.70;99.90
14016;DHT22;7083;48.854;9.158;2023-04-24T04:31:19;9.60;99.90
14016;DHT22;7083;48.854;9.158;2023-04-24T04:33:46;9.40;99.90
14016;DHT22;7083;48.854;9.158;2023-04-24T04:36:13;9.30;99.90
14016;DHT22;7083;48.854;9.158;2023-04-24T04:38:39;9.30;99.90
14016;DHT22;7083;48.854;9.158;2023-04-24T04:41:08;9.20;99.90
14016;DHT22;7083;48.854;9.158;2023-04-24T04:43:35;9.10;99.90
14016;DHT22;7083;48.854;9.158;2023-04-24T04:46:01;9.00;99.90
14016;DHT22;7083;48.854;9.158;2023-04-24T04:48:30;9.00;99.90
14016;DHT22;7083;48.854;9.158;2023-04-24T04:50:57;8.90;99.90
14016;DHT22;7083;48.854;9.158;2023-04-24T04:53:23;9.40;99.90
14016;DHT22;7083;48.854;9.158;2023-04-24T04:55:50;8.90;99.90
14016;DHT22;7083;48.854;9.158;2023-04-24T04:58:17;8.80;99.90
14016;DHT22;7083;48.854;9.158;2023-04-24T05:00:43;8.80;99.90
14016;DHT22;7083;48.854;9.158;2023-04-24T05:03:10;8.70;99.90
14016;DHT22;7083;48.854;9.158;2023-04-24T05:05:38;8.70;99.90
14016;DHT22;7083;48.854;9.158;2023-04-24T05:08:06;8.70;99.90
14016;DHT22;7083;48.854;9.158;2023-04-24T05:10:33;8.70;99.90
14016;DHT22;7083;48.854;9.158;2023-04-24T05:13:02;8.70;99.90
14016;DHT22;7083;48.854;9.158;2023-04-24T05:15:29;8.60;99.90
14016;DHT22;7083;48.854;9.158;2023-04-24T05:17:55;8.60;99.90
14016;DHT22;7083;48.854;9.158;2023-04-24T05:20:22;8.60;99.90
14016;DHT22;7083;48.854;9.158;2023-04-24T05:22:50;8.70;99.90
14016;DHT22;7083;48.854;9.158;2023-04-24T05:25:17;8.70;99.90
14016;DHT22;7083;48.854;9.158;2023-04-24T05:27:44;8.60;99.90
14016;DHT22;7083;48.854;9.158;2023-04-24T05:30:11;8.60;99.90
14016;DHT22;7083;48.854;9.158;2023-04-24T05:32:38;8.60;99.90
14016;DHT22;7083;48.854;9.158;2023-04-24T05:35:05;8.60;99.90
14016;DHT22;7083;48.854;9.158;2023-04-24T05:37:32;8.60;99.90
14016;DHT22;7083;48.854;9.158;2023-04-24T05:40:00;8.60;99.90
14016;DHT22;7083;48.854;9.158;2023-04-24T05:42:27;8.50;99.90
14016;DHT22;7083;48.854;9.158;2023-04-24T05:44:53;8.50;99.90
14016;DHT22;7083;48.854;9.158;2023-04-24T05:47:20;8.40;99.90
14016;DHT22;7083;48.854;9.158;2023-04-24T05:49:48;8.40;99.90
14016;DHT22;7083;48.854;9.158;2023-04-24T05:52:14;8.40;99.90
14016;DHT22;7083;48.854;9.158;2023-04-24T05:54:41;8.40;99.90
14016;DHT22;7083;48.854;9.158;2023-04-24T05:57:09;8.40;99.90
14016;DHT22;7083;48.854;9.158;2023-04-24T05:59:36;8.40;99.90
14016;DHT22;7083;48.854;9.158;2023-04-24T06:02:03;8.40;99.90
14016;DHT22;7083;48.854;9.158;2023-04-24T06:04:31;8.40;99.90
14016;DHT22;7083;48.854;9.158;2023-04-24T06:06:58;8.30;99.90
14016;DHT22;7083;48.854;9.158;2023-04-24T06:09:25;8.30;99.90
14016;DHT22;7083;48.854;9.158;2023-04-24T06:11:51;8.30;99.90
14016;DHT22;7083;48.854;9.158;2023-04-24T06:14:20;8.20;99.90
14016;DHT22;7083;48.854;9.158;2023-04-24T06:16:47;8.20;99.90
14016;DHT22;7083;48.854;9.158;2023-04-24T06:19:13;8.20;99.90
14016;DHT22;7083;48.854;9.158;2023-04-24T06:21:40;8.30;99.90
14016;DHT22;7083;48.854;9.158;2023-04-24T06:24:07;8.30;99.90
14016;DHT22;7083;48.854;9.158;2023-04-24T06:26:33;8.50;99.90
14016;DHT22;7083;48.854;9.158;2023-04-24T06:29:00;8.80;99.90
14016;DHT22;7083;48.854;9.158;2023-04-24T06:31:28;9.00;99.90
14016;DHT22;7083;48.854;9.158;2023-04-24T06:33:55;9.10;99.90
14016;DHT22;7083;48.854;9.158;2023-04-24T06:36:21;9.20;99.90
14016;DHT22;7083;48.854;9.158;2023-04-24T06:38:48;9.30;99.90
14016;DHT22;7083;48.854;9.158;2023-04-24T06:41:15;9.50;99.90
14016;DHT22;7083;48.854;9.158;2023-04-24T06:43:42;9.60;99.90
14016;DHT22;7083;48.854;9.158;2023-04-24T06:46:09;9.70;99.90
14016;DHT22;7083;48.854;9.158;2023-04-24T06:48:37;9.70;99.90
14016;DHT22;7083;48.854;9.158;2023-04-24T06:51:05;9.80;99.90
14016;DHT22;7083;48.854;9.158;2023-04-24T06:53:31;9.80;99.90
14016;DHT22;7083;48.854;9.158;2023-04-24T06:55:58;9.90;99.90
14016;DHT22;7083;48.854;9.158;2023-04-24T06:58:25;10.00;99.90
14016;DHT22;7083;48.854;9.158;2023-04-24T07:00:52;10.00;99.90
14016;DHT22;7083;48.854;9.158;2023-04-24T07:03:18;10.10;99.90
14016;DHT22;7083;48.854;9.158;2023-04-24T07:05:46;10.10;99.90
14016;DHT22;7083;48.854;9.158;2023-04-24T07:08:13;10.20;99.90
14016;DHT22;7083;48.854;9.158;2023-04-24T07:10:42;10.30;99.90
14016;DHT22;7083;48.854;9.158;2023-04-24T07:13:09;10.50;99.90
14016;DHT22;7083;48.854;9.158;2023-04-24T07:15:35;10.60;99.90
14016;DHT22;7083;48.854;9.158;2023-04-24T07:18:02;10.70;99.90
14016;DHT22;7083;48.854;9.158;2023-04-24T07:20:29;10.60;99.90
14016;DHT22;7083;48.854;9.158;2023-04-24T07:22:57;10.40;99.90
14016;DHT22;7083;48.854;9.158;2023-04-24T07:25:24;10.30;99.90
14016;DHT22;7083;48.854;9.158;2023-04-24T07:27:51;10.20;99.90
14016;DHT22;7083;48.854;9.158;2023-04-24T07:30:18;10.20;99.90
14016;DHT22;7083;48.854;9.158;2023-04-24T07:32:45;10.20;99.90
14016;DHT22;7083;48.854;9.158;2023-04-24T07:35:11;10.30;99.90
14016;DHT22;7083;48.854;9.158;2023-04-24T07:37:38;10.40;99.90
14016;DHT22;7083;48.854;9.158;2023-04-24T07:40:07;10.50;99.90
14016;DHT22;7083;48.854;9.158;2023-04-24T07:42:34;10.60;99.90
14016;DHT22;7083;48.854;9.158;2023-04-24T07:45:01;10.60;99.90
14016;DHT22;7083;48.854;9.158;2023-04-24T07:47:29;10.60;99.90
14016;DHT22;7083;48.854;9.158;2023-04-24T07:49:56;10.50;99.90
14016;DHT22;7083;48.854;9.158;2023-04-24T07:52:23;10.50;99.90
14016;DHT22;7083;48.854;9.158;2023-04-24T07:54:49;10.60;99.90
14016;DHT22;7083;48.854;9.158;2023-04-24T07:57:19;10.50;99.90
14016;DHT22;7083;48.854;9.158;2023-04-24T07:59:46;10.60;99.30
14016;DHT22;7083;48.854;9.158;2023-04-24T08:02:12;10.50;98.20
14016;DHT22;7083;48.854;9.158;2023-04-24T08:04:40;10.40;99.50
14016;DHT22;7083;48.854;9.158;2023-04-24T08:07:06;10.50;98.50
14016;DHT22;7083;48.854;9.158;2023-04-24T08:09:33;10.50;97.50
14016;DHT22;7083;48.854;9.158;2023-04-24T08:12:00;10.50;97.40
14016;DHT22;7083;48.854;9.158;2023-04-24T08:14:29;10.50;98.00
14016;DHT22;7083;48.854;9.158;2023-04-24T08:16:55;10.60;99.40
14016;DHT22;7083;48.854;9.158;2023-04-24T08:19:22;10.80;98.50
14016;DHT22;7083;48.854;9.158;2023-04-24T08:21:49;10.80;98.80
14016;DHT22;7083;48.854;9.158;2023-04-24T08:24:16;10.80;97.00
14016;DHT22;7083;48.854;9.158;2023-04-24T08:26:42;10.60;96.40
14016;DHT22;7083;48.854;9.158;2023-04-24T08:29:09;10.40;96.70
14016;DHT22;7083;48.854;9.158;2023-04-24T08:31:37;10.20;96.80
14016;DHT22;7083;48.854;9.158;2023-04-24T08:34:04;10.20;96.30
14016;DHT22;7083;48.854;9.158;2023-04-24T08:36:31;10.10;96.10
14016;DHT22;7083;48.854;9.158;2023-04-24T08:38:58;10.20;95.10
14016;DHT22;7083;48.854;9.158;2023-04-24T08:41:27;10.20;94.90
14016;DHT22;7083;48.854;9.158;2023-04-24T08:43:54;10.30;94.90
14016;DHT22;7083;48.854;9.158;2023-04-24T08:46:24;10.50;94.90
14016;DHT22;7083;48.854;9.158;2023-04-24T08:48:52;10.70;93.10
14016;DHT22;7083;48.854;9.158;2023-04-24T08:51:19;11.00;91.60
14016;DHT22;7083;48.854;9.158;2023-04-24T08:53:46;11.10;91.30
14016;DHT22;7083;48.854;9.158;2023-04-24T08:56:13;11.20;91.40
14016;DHT22;7083;48.854;9.158;2023-04-24T08:58:41;11.20;91.10
14016;DHT22;7083;48.854;9.158;2023-04-24T09:01:09;11.30;91.20
14016;DHT22;7083;48.854;9.158;2023-04-24T09:03:36;11.40;90.50
14016;DHT22;7083;48.854;9.158;2023-04-24T09:06:06;11.40;90.50
14016;DHT22;7083;48.854;9.158;2023-04-24T09:08:34;11.50;89.80
14016;DHT22;7083;48.854;9.158;2023-04-24T09:11:01;11.50;90.70
14016;DHT22;7083;48.854;9.158;2023-04-24T09:13:30;11.60;89.30
14016;DHT22;7083;48.854;9.158;2023-04-24T09:15:56;11.70;90.10
14016;DHT22;7083;48.854;9.158;2023-04-24T09:18:26;11.80;90.60
14016;DHT22;7083;48.854;9.158;2023-04-24T09:21:00;11.70;90.00
14016;DHT22;7083;48.854;9.158;2023-04-24T09:23:30;11.60;88.60
14016;DHT22;7083;48.854;9.158;2023-04-24T09:25:58;11.50;89.00
14016;DHT22;7083;48.854;9.158;2023-04-24T09:28:27;11.50;90.50
14016;DHT22;7083;48.854;9.158;2023-04-24T09:31:03;11.50;90.70
14016;DHT22;7083;48.854;9.158;2023-04-24T09:33:30;11.60;91.10
14016;DHT22;7083;48.854;9.158;2023-04-24T09:35:57;11.80;91.30
14016;DHT22;7083;48.854;9.158;2023-04-24T09:38:33;11.80;91.50
14016;DHT22;7083;48.854;9.158;2023-04-24T09:41:01;11.80;91.30
14016;DHT22;7083;48.854;9.158;2023-04-24T09:43:29;11.90;91.20
14016;DHT22;7083;48.854;9.158;2023-04-24T09:45:56;12.20;91.30
14016;DHT22;7083;48.854;9.158;2023-04-24T09:48:30;12.50;90.30
14016;DHT22;7083;48.854;9.158;2023-04-24T09:50:57;12.80;90.40
14016;DHT22;7083;48.854;9.158;2023-04-24T09:53:24;12.90;87.80
14016;DHT22;7083;48.854;9.158;2023-04-24T09:55:53;13.00;86.90
14016;DHT22;7083;48.854;9.158;2023-04-24T09:58:25;12.90;87.40
14016;DHT22;7083;48.854;9.158;2023-04-24T10:00:54;12.70;87.30
14016;DHT22;7083;48.854;9.158;2023-04-24T10:03:24;12.50;87.00
14016;DHT22;7083;48.854;9.158;2023-04-24T10:05:52;12.40;86.40
14016;DHT22;7083;48.854;9.158;2023-04-24T10:08:20;12.40;87.20
14016;DHT22;7083;48.854;9.158;2023-04-24T10:10:47;12.30;86.40
14016;DHT22;7083;48.854;9.158;2023-04-24T10:13:16;12.30;86.30
14016;DHT22;7083;48.854;9.158;2023-04-24T10:15:43;12.30;87.20
14016;DHT22;7083;48.854;9.158;2023-04-24T10:18:11;12.60;86.90
14016;DHT22;7083;48.854;9.158;2023-04-24T10:20:39;13.10;84.40
14016;DHT22;7083;48.854;9.158;2023-04-24T10:23:06;13.30;82.60
14016;DHT22;7083;48.854;9.158;2023-04-24T10:25:34;13.40;80.80
14016;DHT22;7083;48.854;9.158;2023-04-24T10:28:03;13.30;77.40
14016;DHT22;7083;48.854;9.158;2023-04-24T10:30:32;13.10;79.00
14016;DHT22;7083;48.854;9.158;2023-04-24T10:33:01;12.90;79.80
14016;DHT22;7083;48.854;9.158;2023-04-24T10:35:31;12.70;82.20
14016;DHT22;7083;48.854;9.158;2023-04-24T10:38:00;12.60;82.70
14016;DHT22;7083;48.854;9.158;2023-04-24T10:40:30;12.50;80.90
14016;DHT22;7083;48.854;9.158;2023-04-24T10:42:57;12.30;80.30
14016;DHT22;7083;48.854;9.158;2023-04-24T10:45:24;12.20;79.90
14016;DHT22;7083;48.854;9.158;2023-04-24T10:47:53;12.20;79.90
14016;DHT22;7083;48.854;9.158;2023-04-24T10:50:22;12.30;79.60
14016;DHT22;7083;48.854;9.158;2023-04-24T10:52:49;12.40;80.40
14016;DHT22;7083;48.854;9.158;2023-04-24T10:55:23;12.50;80.80
14016;DHT22;7083;48.854;9.158;2023-04-24T10:58:05;12.70;80.30
14016;DHT22;7083;48.854;9.158;2023-04-24T11:00:32;12.80;79.90
14016;DHT22;7083;48.854;9.158;2023-04-24T11:03:00;13.10;79.30
14016;DHT22;7083;48.854;9.158;2023-04-24T11:05:51;13.10;77.90
14016;DHT22;7083;48.854;9.158;2023-04-24T11:08:32;13.20;77.50
14016;DHT22;7083;48.854;9.158;2023-04-24T11:11:01;13.50;79.10
14016;DHT22;7083;48.854;9.158;2023-04-24T11:14:02;13.30;77.90
14016;DHT22;7083;48.854;9.158;2023-04-24T11:16:32;14.20;77.30
14016;DHT22;7083;48.854;9.158;2023-04-24T11:19:05;14.50;76.90
14016;DHT22;7083;48.854;9.158;2023-04-24T11:21:39;14.70;74.00
14016;DHT22;7083;48.854;9.158;2023-04-24T11:24:25;14.80;76.20
14016;DHT22;7083;48.854;9.158;2023-04-24T11:26:54;15.20;75.60
14016;DHT22;7083;48.854;9.158;2023-04-24T11:29:22;15.40;73.30
14016;DHT22;7083;48.854;9.158;2023-04-24T11:31:49;15.60;73.80
14016;DHT22;7083;48.854;9.158;2023-04-24T11:34:18;15.60;71.70
14016;DHT22;7083;48.854;9.158;2023-04-24T11:36:46;15.60;72.20
14016;DHT22;7083;48.854;9.158;2023-04-24T11:39:13;15.60;70.40
14016;DHT22;7083;48.854;9.158;2023-04-24T11:41:40;15.50;70.80
14016;DHT22;7083;48.854;9.158;2023-04-24T11:44:08;15.30;73.60
14016;DHT22;7083;48.854;9.158;2023-04-24T11:46:35;15.10;72.50
14016;DHT22;7083;48.854;9.158;2023-04-24T11:49:03;14.80;74.10
14016;DHT22;7083;48.854;9.158;2023-04-24T11:51:32;14.30;76.40
14016;DHT22;7083;48.854;9.158;2023-04-24T11:53:58;14.10;77.30
14016;DHT22;7083;48.854;9.158;2023-04-24T11:56:25;14.10;77.90
14016;DHT22;7083;48.854;9.158;2023-04-24T11:58:52;14.40;78.60
14016;DHT22;7083;48.854;9.158;2023-04-24T12:01:20;14.90;76.30
14016;DHT22;7083;48.854;9.158;2023-04-24T12:03:48;15.00;74.10
14016;DHT22;7083;48.854;9.158;2023-04-24T12:06:16;15.30;73.20
14016;DHT22;7083;48.854;9.158;2023-04-24T12:08:47;15.60;72.70
14016;DHT22;7083;48.854;9.158;2023-04-24T12:11:15;15.70;73.00
14016;DHT22;7083;48.854;9.158;2023-04-24T12:13:43;15.70;72.50
14016;DHT22;7083;48.854;9.158;2023-04-24T12:16:10;15.60;70.40
14016;DHT22;7083;48.854;9.158;2023-04-24T12:18:42;15.00;72.00
14016;DHT22;7083;48.854;9.158;2023-04-24T12:21:16;14.70;73.30
14016;DHT22;7083;48.854;9.158;2023-04-24T12:23:43;14.40;75.80
14016;DHT22;7083;48.854;9.158;2023-04-24T12:26:12;14.20;74.90
14016;DHT22;7083;48.854;9.158;2023-04-24T12:28:39;14.30;75.00
14016;DHT22;7083;48.854;9.158;2023-04-24T12:31:06;14.50;73.90
14016;DHT22;7083;48.854;9.158;2023-04-24T12:33:34;14.60;73.40
14016;DHT22;7083;48.854;9.158;2023-04-24T12:36:01;14.60;72.10
14016;DHT22;7083;48.854;9.158;2023-04-24T12:38:29;14.40;73.50
14016;DHT22;7083;48.854;9.158;2023-04-24T12:41:03;14.20;74.80
14016;DHT22;7083;48.854;9.158;2023-04-24T12:43:32;14.30;75.00
14016;DHT22;7083;48.854;9.158;2023-04-24T12:45:59;14.50;74.00
14016;DHT22;7083;48.854;9.158;2023-04-24T12:48:25;14.70;73.60
14016;DHT22;7083;48.854;9.158;2023-04-24T12:50:52;14.50;74.00
14016;DHT22;7083;48.854;9.158;2023-04-24T12:53:19;14.30;75.70
14016;DHT22;7083;48.854;9.158;2023-04-24T12:55:46;14.20;74.90
14016;DHT22;7083;48.854;9.158;2023-04-24T12:58:18;14.10;76.00
14016;DHT22;7083;48.854;9.158;2023-04-24T13:00:47;13.70;80.00
14016;DHT22;7083;48.854;9.158;2023-04-24T13:03:14;13.30;86.00
14016;DHT22;7083;48.854;9.158;2023-04-24T13:05:42;13.10;89.30
14016;DHT22;7083;48.854;9.158;2023-04-24T13:08:09;13.40;90.80
14016;DHT22;7083;48.854;9.158;2023-04-24T13:10:36;14.00;90.50
14016;DHT22;7083;48.854;9.158;2023-04-24T13:13:03;14.60;84.90
14016;DHT22;7083;48.854;9.158;2023-04-24T13:15:29;14.90;80.40
14016;DHT22;7083;48.854;9.158;2023-04-24T13:17:58;14.70;80.50
14016;DHT22;7083;48.854;9.158;2023-04-24T13:20:24;14.30;81.30
14016;DHT22;7083;48.854;9.158;2023-04-24T13:22:51;14.00;81.60
14016;DHT22;7083;48.854;9.158;2023-04-24T13:25:18;13.80;81.30
14016;DHT22;7083;48.854;9.158;2023-04-24T13:27:45;13.80;82.20
14016;DHT22;7083;48.854;9.158;2023-04-24T13:30:12;13.90;83.30
14016;DHT22;7083;48.854;9.158;2023-04-24T13:32:39;14.10;80.90
14016;DHT22;7083;48.854;9.158;2023-04-24T13:35:08;14.60;80.70
14016;DHT22;7083;48.854;9.158;2023-04-24T13:37:35;15.00;78.40
14016;DHT22;7083;48.854;9.158;2023-04-24T13:40:02;15.00;78.00
14016;DHT22;7083;48.854;9.158;2023-04-24T13:42:31;14.80;78.20
14016;DHT22;7083;48.854;9.158;2023-04-24T13:44:58;14.40;78.20
14016;DHT22;7083;48.854;9.158;2023-04-24T13:47:25;14.10;78.80
14016;DHT22;7083;48.854;9.158;2023-04-24T13:49:51;14.10;79.90
14016;DHT22;7083;48.854;9.158;2023-04-24T13:52:20;15.00;79.20
14016;DHT22;7083;48.854;9.158;2023-04-24T13:54:47;16.80;75.90
14016;DHT22;7083;48.854;9.158;2023-04-24T13:57:14;17.90;70.10
14016;DHT22;7083;48.854;9.158;2023-04-24T13:59:41;18.30;68.20
14016;DHT22;7083;48.854;9.158;2023-04-24T14:02:07;18.00;67.30
14016;DHT22;7083;48.854;9.158;2023-04-24T14:04:34;17.30;68.80
14016;DHT22;7083;48.854;9.158;2023-04-24T14:07:01;16.70;72.10
14016;DHT22;7083;48.854;9.158;2023-04-24T14:09:29;16.60;74.20
14016;DHT22;7083;48.854;9.158;2023-04-24T14:11:55;17.20;74.00
14016;DHT22;7083;48.854;9.158;2023-04-24T14:14:23;17.70;70.00
14016;DHT22;7083;48.854;9.158;2023-04-24T14:16:49;17.60;69.50
14016;DHT22;7083;48.854;9.158;2023-04-24T14:19:16;17.20;70.30
14016;DHT22;7083;48.854;9.158;2023-04-24T14:21:42;16.70;71.40
14016;DHT22;7083;48.854;9.158;2023-04-24T14:24:09;16.30;71.40
14016;DHT22;7083;48.854;9.158;2023-04-24T14:26:37;16.50;74.10
14016;DHT22;7083;48.854;9.158;2023-04-24T14:29:04;17.40;71.80
14016;DHT22;7083;48.854;9.158;2023-04-24T14:31:31;18.10;67.10
14016;DHT22;7083;48.854;9.158;2023-04-24T14:33:57;19.20;67.10
14016;DHT22;7083;48.854;9.158;2023-04-24T14:36:24;19.90;62.70
14016;DHT22;7083;48.854;9.158;2023-04-24T14:38:51;19.40;63.20
14016;DHT22;7083;48.854;9.158;2023-04-24T14:41:17;18.60;64.50
14016;DHT22;7083;48.854;9.158;2023-04-24T14:43:45;17.80;66.80
14016;DHT22;7083;48.854;9.158;2023-04-24T14:46:12;17.30;69.40
14016;DHT22;7083;48.854;9.158;2023-04-24T14:48:39;17.20;71.60
14016;DHT22;7083;48.854;9.158;2023-04-24T14:51:05;17.10;70.10
14016;DHT22;7083;48.854;9.158;2023-04-24T14:53:32;17.00;68.30
14016;DHT22;7083;48.854;9.158;2023-04-24T14:55:59;17.00;67.00
14016;DHT22;7083;48.854;9.158;2023-04-24T14:58:25;17.00;68.60
14016;DHT22;7083;48.854;9.158;2023-04-24T15:00:53;17.50;68.70
14016;DHT22;7083;48.854;9.158;2023-04-24T15:03:20;18.50;69.20
14016;DHT22;7083;48.854;9.158;2023-04-24T15:05:48;20.40;63.90
14016;DHT22;7083;48.854;9.158;2023-04-24T15:08:14;22.40;57.60
14016;DHT22;7083;48.854;9.158;2023-04-24T15:10:41;23.40;55.10
14016;DHT22;7083;48.854;9.158;2023-04-24T15:13:08;23.10;54.10
14016;DHT22;7083;48.854;9.158;2023-04-24T15:15:35;22.10;55.40
14016;DHT22;7083;48.854;9.158;2023-04-24T15:18:04;20.60;56.80
14016;DHT22;7083;48.854;9.158;2023-04-24T15:20:30;19.20;58.50
14016;DHT22;7083;48.854;9.158;2023-04-24T15:22:57;18.00;60.90
14016;DHT22;7083;48.854;9.158;2023-04-24T15:25:25;16.90;64.10
14016;DHT22;7083;48.854;9.158;2023-04-24T15:27:51;16.30;66.10
14016;DHT22;7083;48.854;9.158;2023-04-24T15:30:18;15.60;68.90
14016;DHT22;7083;48.854;9.158;2023-04-24T15:32:45;15.10;71.10
14016;DHT22;7083;48.854;9.158;2023-04-24T15:35:13;14.50;72.10
14016;DHT22;7083;48.854;9.158;2023-04-24T15:37:41;14.40;73.50
14016;DHT22;7083;48.854;9.158;2023-04-24T15:40:09;14.40;75.00
14016;DHT22;7083;48.854;9.158;2023-04-24T15:42:38;14.90;75.10
14016;DHT22;7083;48.854;9.158;2023-04-24T15:45:06;15.50;74.40
14016;DHT22;7083;48.854;9.158;2023-04-24T15:47:33;16.00;71.80
14016;DHT22;7083;48.854;9.158;2023-04-24T15:50:00;16.10;72.40
14016;DHT22;7083;48.854;9.158;2023-04-24T15:52:28;16.90;74.00
14016;DHT22;7083;48.854;9.158;2023-04-24T15:54:55;17.60;68.20